sensor_id;sensor_type;location;lat;lon;timestamp;P1;durP1;ratioP1;P2;durP2;ratioP2
32964;SDS011;19317;48.226;11.686;2022-08-19T00:04:33;5.43;;;5.00;;
32964;SDS011;19317;48.226;11.686;2022-08-19T00:09:24;5.70;;;5.20;;
32964;SDS011;19317;48.226;11.686;2022-08-19T00:14:16;5.00;;;4.60;;
32964;SDS011;19317;48.226;11.686;2022-08-19T00:19:07;5.27;;;4.77;;
32964;SDS011;19317;48.226;11.686;2022-08-19T00:23:58;4.60;;;4.23;;
32964;SDS011;19317;48.226;11.686;2022-08-19T00:28:49;4.80;;;4.40;;
32964;SDS011;19317;48.226;11.686;2022-08-19T00:33:40;4.83;;;4.43;;
32964;SDS011;19317;48.226;11.686;2022-08-19T00:38:32;4.87;;;4.47;;
32964;SDS011;19317;48.226;11.686;2022-08-19T00:43:24;4.80;;;4.40;;
32964;SDS011;19317;48.226;11.686;2022-08-19T00:48:16;5.57;;;5.00;;
32964;SDS011;19317;48.226;11.686;2022-08-19T00:53:07;7.40;;;5.07;;
32964;SDS011;19317;48.226;11.686;2022-08-19T00:57:59;5.80;;;5.30;;
32964;SDS011;19317;48.226;11.686;2022-08-19T01:02:51;6.90;;;6.30;;
32964;SDS011;19317;48.226;11.686;2022-08-19T01:07:43;6.90;;;6.30;;
32964;SDS011;19317;48.226;11.686;2022-08-19T01:12:34;7.90;;;7.17;;
32964;SDS011;19317;48.226;11.686;2022-08-19T01:17:25;9.07;;;7.33;;
32964;SDS011;19317;48.226;11.686;2022-08-19T01:27:13;8.53;;;7.73;;
32964;SDS011;19317;48.226;11.686;2022-08-19T01:32:04;9.47;;;8.63;;
32964;SDS011;19317;48.226;11.686;2022-08-19T01:36:55;9.33;;;8.43;;
32964;SDS011;19317;48.226;11.686;2022-08-19T01:41:46;9.80;;;8.93;;
32964;SDS011;19317;48.226;11.686;2022-08-19T01:46:37;9.87;;;8.87;;
32964;SDS011;19317;48.226;11.686;2022-08-19T01:51:28;9.50;;;8.60;;
32964;SDS011;19317;48.226;11.686;2022-08-19T01:56:19;8.90;;;8.10;;
32964;SDS011;19317;48.226;11.686;2022-08-19T02:01:10;10.03;;;9.13;;
32964;SDS011;19317;48.226;11.686;2022-08-19T02:06:02;10.23;;;9.27;;
32964;SDS011;19317;48.226;11.686;2022-08-19T02:10:53;10.03;;;9.13;;
32964;SDS011;19317;48.226;11.686;2022-08-19T02:15:44;10.37;;;9.47;;
32964;SDS011;19317;48.226;11.686;2022-08-19T02:20:35;11.20;;;10.10;;
32964;SDS011;19317;48.226;11.686;2022-08-19T02:25:26;10.23;;;9.33;;
32964;SDS011;19317;48.226;11.686;2022-08-19T02:30:18;9.60;;;8.77;;
32964;SDS011;19317;48.226;11.686;2022-08-19T02:35:09;9.83;;;8.93;;
32964;SDS011;19317;48.226;11.686;2022-08-19T02:40:00;10.13;;;9.23;;
32964;SDS011;19317;48.226;11.686;2022-08-19T02:44:51;9.30;;;8.50;;
32964;SDS011;19317;48.226;11.686;2022-08-19T02:49:42;9.53;;;8.63;;
32964;SDS011;19317;48.226;11.686;2022-08-19T02:54:32;8.97;;;8.17;;
32964;SDS011;19317;48.226;11.686;2022-08-19T02:59:23;9.67;;;8.87;;
32964;SDS011;19317;48.226;11.686;2022-08-19T03:04:15;9.53;;;8.60;;
32964;SDS011;19317;48.226;11.686;2022-08-19T03:09:06;8.97;;;8.07;;
32964;SDS011;19317;48.226;11.686;2022-08-19T03:13:57;9.33;;;8.43;;
32964;SDS011;19317;48.226;11.686;2022-08-19T03:18:49;9.00;;;8.20;;
32964;SDS011;19317;48.226;11.686;2022-08-19T03:23:40;9.87;;;8.90;;
32964;SDS011;19317;48.226;11.686;2022-08-19T03:28:31;8.00;;;7.20;;
32964;SDS011;19317;48.226;11.686;2022-08-19T03:33:22;8.90;;;8.10;;
32964;SDS011;19317;48.226;11.686;2022-08-19T03:38:13;9.47;;;8.57;;
32964;SDS011;19317;48.226;11.686;2022-08-19T03:43:04;9.50;;;8.53;;
32964;SDS011;19317;48.226;11.686;2022-08-19T03:47:55;9.50;;;8.67;;
32964;SDS011;19317;48.226;11.686;2022-08-19T03:52:49;9.30;;;8.40;;
32964;SDS011;19317;48.226;11.686;2022-08-19T03:57:40;8.87;;;8.07;;
32964;SDS011;19317;48.226;11.686;2022-08-19T04:02:31;9.83;;;8.97;;
32964;SDS011;19317;48.226;11.686;2022-08-19T04:07:22;10.00;;;9.10;;
32964;SDS011;19317;48.226;11.686;2022-08-19T04:12:13;10.33;;;9.30;;
32964;SDS011;19317;48.226;11.686;2022-08-19T04:17:04;10.30;;;9.40;;
32964;SDS011;19317;48.226;11.686;2022-08-19T04:21:55;10.33;;;9.43;;
32964;SDS011;19317;48.226;11.686;2022-08-19T04:26:46;10.63;;;9.63;;
32964;SDS011;19317;48.226;11.686;2022-08-19T04:31:37;10.87;;;9.87;;
32964;SDS011;19317;48.226;11.686;2022-08-19T04:36:29;11.13;;;10.03;;
32964;SDS011;19317;48.226;11.686;2022-08-19T04:41:20;10.37;;;9.37;;
32964;SDS011;19317;48.226;11.686;2022-08-19T04:46:12;10.67;;;9.70;;
32964;SDS011;19317;48.226;11.686;2022-08-19T04:51:05;10.73;;;9.63;;
32964;SDS011;19317;48.226;11.686;2022-08-19T04:55:57;10.70;;;9.67;;
32964;SDS011;19317;48.226;11.686;2022-08-19T05:00:48;10.33;;;9.30;;
32964;SDS011;19317;48.226;11.686;2022-08-19T05:05:40;10.27;;;9.27;;
32964;SDS011;19317;48.226;11.686;2022-08-19T05:10:30;9.80;;;8.90;;
32964;SDS011;19317;48.226;11.686;2022-08-19T05:15:21;11.37;;;10.27;;
32964;SDS011;19317;48.226;11.686;2022-08-19T05:20:12;11.17;;;10.17;;
32964;SDS011;19317;48.226;11.686;2022-08-19T05:25:04;10.90;;;9.90;;
32964;SDS011;19317;48.226;11.686;2022-08-19T05:29:56;10.03;;;9.13;;
32964;SDS011;19317;48.226;11.686;2022-08-19T05:34:47;9.83;;;8.93;;
32964;SDS011;19317;48.226;11.686;2022-08-19T05:39:38;10.03;;;9.10;;
32964;SDS011;19317;48.226;11.686;2022-08-19T05:44:29;11.07;;;9.97;;
32964;SDS011;19317;48.226;11.686;2022-08-19T05:49:21;10.87;;;9.93;;
32964;SDS011;19317;48.226;11.686;2022-08-19T05:54:13;10.73;;;9.63;;
32964;SDS011;19317;48.226;11.686;2022-08-19T05:59:04;10.90;;;9.90;;
32964;SDS011;19317;48.226;11.686;2022-08-19T06:03:55;11.50;;;10.43;;
32964;SDS011;19317;48.226;11.686;2022-08-19T06:08:46;11.87;;;10.73;;
32964;SDS011;19317;48.226;11.686;2022-08-19T06:13:37;11.27;;;10.17;;
32964;SDS011;19317;48.226;11.686;2022-08-19T06:18:28;13.17;;;10.97;;
32964;SDS011;19317;48.226;11.686;2022-08-19T06:23:19;12.40;;;11.20;;
32964;SDS011;19317;48.226;11.686;2022-08-19T06:28:10;12.13;;;10.93;;
32964;SDS011;19317;48.226;11.686;2022-08-19T06:33:01;12.40;;;11.30;;
32964;SDS011;19317;48.226;11.686;2022-08-19T06:37:52;13.23;;;12.03;;
32964;SDS011;19317;48.226;11.686;2022-08-19T06:42:42;13.43;;;12.17;;
32964;SDS011;19317;48.226;11.686;2022-08-19T06:47:33;15.10;;;13.60;;
32964;SDS011;19317;48.226;11.686;2022-08-19T06:52:24;15.80;;;14.30;;
32964;SDS011;19317;48.226;11.686;2022-08-19T06:57:15;17.03;;;15.23;;
32964;SDS011;19317;48.226;11.686;2022-08-19T07:02:06;17.60;;;15.60;;
32964;SDS011;19317;48.226;11.686;2022-08-19T07:06:59;17.07;;;15.37;;
32964;SDS011;19317;48.226;11.686;2022-08-19T07:11:50;17.00;;;15.40;;
32964;SDS011;19317;48.226;11.686;2022-08-19T07:16:41;16.40;;;14.70;;
32964;SDS011;19317;48.226;11.686;2022-08-19T07:21:32;17.07;;;15.27;;
32964;SDS011;19317;48.226;11.686;2022-08-19T07:26:25;17.90;;;16.10;;
32964;SDS011;19317;48.226;11.686;2022-08-19T07:31:17;18.73;;;16.83;;
32964;SDS011;19317;48.226;11.686;2022-08-19T07:36:09;17.87;;;16.23;;
32964;SDS011;19317;48.226;11.686;2022-08-19T07:41:01;18.93;;;17.10;;
32964;SDS011;19317;48.226;11.686;2022-08-19T07:45:52;23.13;;;20.60;;
32964;SDS011;19317;48.226;11.686;2022-08-19T07:50:43;24.23;;;21.70;;
32964;SDS011;19317;48.226;11.686;2022-08-19T07:55:34;23.90;;;21.30;;
32964;SDS011;19317;48.226;11.686;2022-08-19T08:00:25;21.90;;;19.50;;
32964;SDS011;19317;48.226;11.686;2022-08-19T08:05:16;21.50;;;19.37;;
32964;SDS011;19317;48.226;11.686;2022-08-19T08:10:07;23.23;;;20.73;;
32964;SDS011;19317;48.226;11.686;2022-08-19T08:14:59;22.53;;;20.00;;
32964;SDS011;19317;48.226;11.686;2022-08-19T08:19:50;23.83;;;21.03;;
32964;SDS011;19317;48.226;11.686;2022-08-19T08:24:41;24.17;;;21.67;;
32964;SDS011;19317;48.226;11.686;2022-08-19T08:29:32;24.47;;;21.87;;
32964;SDS011;19317;48.226;11.686;2022-08-19T08:34:23;24.20;;;21.60;;
32964;SDS011;19317;48.226;11.686;2022-08-19T09:01:45;29.33;;;24.87;;
32964;SDS011;19317;48.226;11.686;2022-08-19T09:06:57;28.37;;;24.10;;
32964;SDS011;19317;48.226;11.686;2022-08-19T09:11:56;31.63;;;25.70;;
32964;SDS011;19317;48.226;11.686;2022-08-19T09:16:51;30.97;;;26.63;;
32964;SDS011;19317;48.226;11.686;2022-08-19T09:21:42;29.13;;;25.97;;
32964;SDS011;19317;48.226;11.686;2022-08-19T09:26:33;32.07;;;26.63;;
32964;SDS011;19317;48.226;11.686;2022-08-19T09:31:25;31.53;;;27.27;;
32964;SDS011;19317;48.226;11.686;2022-08-19T09:36:17;33.77;;;28.17;;
32964;SDS011;19317;48.226;11.686;2022-08-19T09:41:11;32.67;;;27.53;;
32964;SDS011;19317;48.226;11.686;2022-08-19T09:46:03;30.57;;;26.23;;
32964;SDS011;19317;48.226;11.686;2022-08-19T09:50:54;29.43;;;26.37;;
32964;SDS011;19317;48.226;11.686;2022-08-19T09:55:45;29.07;;;24.77;;
32964;SDS011;19317;48.226;11.686;2022-08-19T10:00:37;29.77;;;26.63;;
32964;SDS011;19317;48.226;11.686;2022-08-19T10:05:28;30.03;;;25.87;;
32964;SDS011;19317;48.226;11.686;2022-08-19T10:10:19;29.57;;;25.43;;
32964;SDS011;19317;48.226;11.686;2022-08-19T10:15:10;28.87;;;25.83;;
32964;SDS011;19317;48.226;11.686;2022-08-19T10:20:01;30.47;;;26.87;;
32964;SDS011;19317;48.226;11.686;2022-08-19T10:24:52;28.73;;;25.70;;
32964;SDS011;19317;48.226;11.686;2022-08-19T10:29:43;27.83;;;24.93;;
32964;SDS011;19317;48.226;11.686;2022-08-19T10:34:35;26.70;;;23.43;;
32964;SDS011;19317;48.226;11.686;2022-08-19T10:39:26;29.00;;;25.10;;
32964;SDS011;19317;48.226;11.686;2022-08-19T10:44:17;27.17;;;24.27;;
32964;SDS011;19317;48.226;11.686;2022-08-19T10:49:09;27.27;;;23.23;;
32964;SDS011;19317;48.226;11.686;2022-08-19T10:54:00;26.63;;;23.33;;
32964;SDS011;19317;48.226;11.686;2022-08-19T10:58:51;24.53;;;22.00;;
32964;SDS011;19317;48.226;11.686;2022-08-19T11:03:42;20.53;;;17.87;;
32964;SDS011;19317;48.226;11.686;2022-08-19T11:08:34;19.17;;;17.13;;
32964;SDS011;19317;48.226;11.686;2022-08-19T11:13:25;19.53;;;17.43;;
32964;SDS011;19317;48.226;11.686;2022-08-19T11:18:16;21.90;;;19.60;;
32964;SDS011;19317;48.226;11.686;2022-08-19T11:23:07;16.40;;;14.70;;
32964;SDS011;19317;48.226;11.686;2022-08-19T11:27:57;16.93;;;15.23;;
32964;SDS011;19317;48.226;11.686;2022-08-19T11:32:48;15.37;;;13.87;;
32964;SDS011;19317;48.226;11.686;2022-08-19T11:37:39;12.80;;;11.50;;
32964;SDS011;19317;48.226;11.686;2022-08-19T11:42:30;10.30;;;9.40;;
32964;SDS011;19317;48.226;11.686;2022-08-19T11:47:21;9.70;;;8.80;;
32964;SDS011;19317;48.226;11.686;2022-08-19T11:52:12;6.50;;;5.90;;
32964;SDS011;19317;48.226;11.686;2022-08-19T11:57:03;4.97;;;4.47;;
32964;SDS011;19317;48.226;11.686;2022-08-19T12:01:54;4.00;;;3.63;;
32964;SDS011;19317;48.226;11.686;2022-08-19T12:06:45;3.70;;;3.40;;
32964;SDS011;19317;48.226;11.686;2022-08-19T12:11:36;3.60;;;3.30;;
32964;SDS011;19317;48.226;11.686;2022-08-19T12:16:28;3.03;;;2.80;;
32964;SDS011;19317;48.226;11.686;2022-08-19T12:21:21;3.00;;;2.70;;
32964;SDS011;19317;48.226;11.686;2022-08-19T12:26:13;3.03;;;2.73;;
32964;SDS011;19317;48.226;11.686;2022-08-19T12:31:04;3.13;;;2.93;;
32964;SDS011;19317;48.226;11.686;2022-08-19T12:35:54;2.50;;;2.30;;
32964;SDS011;19317;48.226;11.686;2022-08-19T12:40:46;2.40;;;2.20;;
32964;SDS011;19317;48.226;11.686;2022-08-19T12:45:37;2.47;;;2.27;;
32964;SDS011;19317;48.226;11.686;2022-08-19T12:50:28;2.00;;;1.90;;
32964;SDS011;19317;48.226;11.686;2022-08-19T12:55:19;1.40;;;1.30;;
32964;SDS011;19317;48.226;11.686;2022-08-19T13:00:11;1.70;;;1.60;;
32964;SDS011;19317;48.226;11.686;2022-08-19T13:05:03;1.50;;;1.40;;
32964;SDS011;19317;48.226;11.686;2022-08-19T13:09:54;1.70;;;1.60;;
32964;SDS011;19317;48.226;11.686;2022-08-19T13:14:45;1.70;;;1.57;;
32964;SDS011;19317;48.226;11.686;2022-08-19T13:19:36;1.80;;;1.70;;
32964;SDS011;19317;48.226;11.686;2022-08-19T13:24:27;2.00;;;1.63;;
32964;SDS011;19317;48.226;11.686;2022-08-19T13:29:18;1.70;;;1.60;;
32964;SDS011;19317;48.226;11.686;2022-08-19T13:34:09;2.33;;;1.87;;
32964;SDS011;19317;48.226;11.686;2022-08-19T13:39:00;2.60;;;2.40;;
32964;SDS011;19317;48.226;11.686;2022-08-19T13:43:51;2.90;;;2.70;;
32964;SDS011;19317;48.226;11.686;2022-08-19T13:48:42;3.17;;;2.97;;
32964;SDS011;19317;48.226;11.686;2022-08-19T13:53:33;3.37;;;3.07;;
32964;SDS011;19317;48.226;11.686;2022-08-19T13:58:24;3.23;;;2.93;;
32964;SDS011;19317;48.226;11.686;2022-08-19T14:03:14;4.10;;;3.80;;
32964;SDS011;19317;48.226;11.686;2022-08-19T14:08:05;4.00;;;3.70;;
32964;SDS011;19317;48.226;11.686;2022-08-19T14:12:57;4.40;;;4.10;;
32964;SDS011;19317;48.226;11.686;2022-08-19T14:17:49;3.63;;;3.33;;
32964;SDS011;19317;48.226;11.686;2022-08-19T14:22:40;3.23;;;3.03;;
32964;SDS011;19317;48.226;11.686;2022-08-19T14:27:34;4.00;;;3.70;;
32964;SDS011;19317;48.226;11.686;2022-08-19T14:32:25;3.20;;;3.00;;
32964;SDS011;19317;48.226;11.686;2022-08-19T14:37:16;3.47;;;3.17;;
32964;SDS011;19317;48.226;11.686;2022-08-19T14:42:08;3.20;;;3.00;;
32964;SDS011;19317;48.226;11.686;2022-08-19T14:46:59;3.13;;;2.93;;
32964;SDS011;19317;48.226;11.686;2022-08-19T14:51:50;4.23;;;3.83;;
32964;SDS011;19317;48.226;11.686;2022-08-19T14:56:41;2.57;;;2.37;;
32964;SDS011;19317;48.226;11.686;2022-08-19T15:01:32;2.83;;;2.63;;
32964;SDS011;19317;48.226;11.686;2022-08-19T15:06:23;3.80;;;3.20;;
32964;SDS011;19317;48.226;11.686;2022-08-19T15:11:16;3.47;;;3.20;;
32964;SDS011;19317;48.226;11.686;2022-08-19T15:16:07;4.00;;;3.60;;
32964;SDS011;19317;48.226;11.686;2022-08-19T15:20:58;4.77;;;4.37;;
32964;SDS011;19317;48.226;11.686;2022-08-19T15:25:49;6.13;;;5.63;;
32964;SDS011;19317;48.226;11.686;2022-08-19T15:30:40;5.43;;;4.93;;
32964;SDS011;19317;48.226;11.686;2022-08-19T15:35:31;6.20;;;5.70;;
32964;SDS011;19317;48.226;11.686;2022-08-19T15:40:23;6.10;;;5.60;;
32964;SDS011;19317;48.226;11.686;2022-08-19T15:45:15;6.37;;;5.87;;
32964;SDS011;19317;48.226;11.686;2022-08-19T15:54:57;6.97;;;6.37;;
32964;SDS011;19317;48.226;11.686;2022-08-19T15:59:48;7.97;;;7.30;;
32964;SDS011;19317;48.226;11.686;2022-08-19T16:04:39;7.73;;;7.03;;
32964;SDS011;19317;48.226;11.686;2022-08-19T16:09:30;6.77;;;6.17;;
32964;SDS011;19317;48.226;11.686;2022-08-19T16:14:21;7.47;;;6.77;;
32964;SDS011;19317;48.226;11.686;2022-08-19T16:19:12;7.80;;;7.10;;
32964;SDS011;19317;48.226;11.686;2022-08-19T16:24:04;7.00;;;6.40;;
32964;SDS011;19317;48.226;11.686;2022-08-19T16:28:56;8.13;;;7.43;;
32964;SDS011;19317;48.226;11.686;2022-08-19T16:33:47;8.17;;;7.47;;
32964;SDS011;19317;48.226;11.686;2022-08-19T16:38:38;7.63;;;6.93;;
32964;SDS011;19317;48.226;11.686;2022-08-19T16:43:29;7.03;;;6.33;;
32964;SDS011;19317;48.226;11.686;2022-08-19T16:48:20;8.33;;;7.63;;
32964;SDS011;19317;48.226;11.686;2022-08-19T16:53:12;8.17;;;7.47;;
32964;SDS011;19317;48.226;11.686;2022-08-19T16:58:03;7.90;;;7.20;;
32964;SDS011;19317;48.226;11.686;2022-08-19T17:02:54;7.40;;;6.80;;
32964;SDS011;19317;48.226;11.686;2022-08-19T17:07:45;6.87;;;5.83;;
32964;SDS011;19317;48.226;11.686;2022-08-19T17:12:35;7.13;;;6.53;;
32964;SDS011;19317;48.226;11.686;2022-08-19T17:17:27;6.73;;;6.13;;
32964;SDS011;19317;48.226;11.686;2022-08-19T17:22:18;6.90;;;6.30;;
32964;SDS011;19317;48.226;11.686;2022-08-19T17:27:09;6.63;;;6.03;;
32964;SDS011;19317;48.226;11.686;2022-08-19T17:31:59;6.30;;;5.70;;
32964;SDS011;19317;48.226;11.686;2022-08-19T17:36:50;6.17;;;5.67;;
32964;SDS011;19317;48.226;11.686;2022-08-19T17:41:41;5.17;;;4.77;;
32964;SDS011;19317;48.226;11.686;2022-08-19T17:46:32;4.87;;;4.47;;
32964;SDS011;19317;48.226;11.686;2022-08-19T17:51:25;4.20;;;3.90;;
32964;SDS011;19317;48.226;11.686;2022-08-19T17:56:26;3.60;;;3.30;;
32964;SDS011;19317;48.226;11.686;2022-08-19T18:01:17;3.20;;;2.90;;
32964;SDS011;19317;48.226;11.686;2022-08-19T18:06:09;2.90;;;2.70;;
32964;SDS011;19317;48.226;11.686;2022-08-19T18:11:00;2.50;;;2.30;;
32964;SDS011;19317;48.226;11.686;2022-08-19T18:15:51;2.40;;;2.20;;
32964;SDS011;19317;48.226;11.686;2022-08-19T18:20:42;2.50;;;2.30;;
32964;SDS011;19317;48.226;11.686;2022-08-19T18:25:33;2.97;;;2.77;;
32964;SDS011;19317;48.226;11.686;2022-08-19T18:30:24;2.70;;;2.50;;
32964;SDS011;19317;48.226;11.686;2022-08-19T18:35:16;2.80;;;2.60;;
32964;SDS011;19317;48.226;11.686;2022-08-19T18:40:09;2.80;;;2.60;;
32964;SDS011;19317;48.226;11.686;2022-08-19T18:45:00;3.10;;;2.80;;
32964;SDS011;19317;48.226;11.686;2022-08-19T18:49:51;4.17;;;3.10;;
32964;SDS011;19317;48.226;11.686;2022-08-19T18:54:42;3.40;;;3.10;;
32964;SDS011;19317;48.226;11.686;2022-08-19T18:59:32;3.80;;;3.50;;
32964;SDS011;19317;48.226;11.686;2022-08-19T19:04:25;4.50;;;4.10;;
32964;SDS011;19317;48.226;11.686;2022-08-19T19:09:18;4.67;;;4.27;;
32964;SDS011;19317;48.226;11.686;2022-08-19T19:14:10;4.63;;;4.23;;
32964;SDS011;19317;48.226;11.686;2022-08-19T19:19:01;7.13;;;6.53;;
32964;SDS011;19317;48.226;11.686;2022-08-19T19:23:53;6.80;;;6.20;;
32964;SDS011;19317;48.226;11.686;2022-08-19T19:28:44;7.70;;;7.00;;
32964;SDS011;19317;48.226;11.686;2022-08-19T19:33:35;8.00;;;7.27;;
32964;SDS011;19317;48.226;11.686;2022-08-19T19:38:26;8.63;;;7.83;;
32964;SDS011;19317;48.226;11.686;2022-08-19T19:43:17;8.33;;;7.63;;
32964;SDS011;19317;48.226;11.686;2022-08-19T19:48:08;8.80;;;8.00;;
32964;SDS011;19317;48.226;11.686;2022-08-19T19:52:58;9.23;;;8.43;;
32964;SDS011;19317;48.226;11.686;2022-08-19T19:57:49;8.97;;;8.07;;
32964;SDS011;19317;48.226;11.686;2022-08-19T20:02:40;8.87;;;8.07;;
32964;SDS011;19317;48.226;11.686;2022-08-19T20:07:31;8.47;;;7.77;;
32964;SDS011;19317;48.226;11.686;2022-08-19T20:12:22;9.40;;;8.50;;
32964;SDS011;19317;48.226;11.686;2022-08-19T20:17:13;8.60;;;7.90;;
32964;SDS011;19317;48.226;11.686;2022-08-19T20:22:04;8.13;;;7.43;;
32964;SDS011;19317;48.226;11.686;2022-08-19T20:26:55;7.93;;;7.23;;
32964;SDS011;19317;48.226;11.686;2022-08-19T20:31:46;7.77;;;6.77;;
32964;SDS011;19317;48.226;11.686;2022-08-19T20:36:37;8.57;;;7.77;;
32964;SDS011;19317;48.226;11.686;2022-08-19T20:41:28;7.80;;;7.10;;
32964;SDS011;19317;48.226;11.686;2022-08-19T20:46:19;8.67;;;7.07;;
32964;SDS011;19317;48.226;11.686;2022-08-19T20:51:10;16.30;;;12.07;;
32964;SDS011;19317;48.226;11.686;2022-08-19T20:56:01;8.40;;;7.53;;
32964;SDS011;19317;48.226;11.686;2022-08-19T21:00:53;8.77;;;7.90;;
32964;SDS011;19317;48.226;11.686;2022-08-19T21:05:44;9.67;;;8.80;;
32964;SDS011;19317;48.226;11.686;2022-08-19T21:10:35;7.77;;;6.97;;
32964;SDS011;19317;48.226;11.686;2022-08-19T21:15:26;8.10;;;7.40;;
32964;SDS011;19317;48.226;11.686;2022-08-19T21:20:17;8.43;;;7.33;;
32964;SDS011;19317;48.226;11.686;2022-08-19T21:25:08;8.37;;;7.67;;
32964;SDS011;19317;48.226;11.686;2022-08-19T21:29:59;9.60;;;8.70;;
32964;SDS011;19317;48.226;11.686;2022-08-19T21:34:49;10.77;;;9.87;;
32964;SDS011;19317;48.226;11.686;2022-08-19T21:39:40;10.57;;;9.63;;
32964;SDS011;19317;48.226;11.686;2022-08-19T21:44:31;10.33;;;9.33;;
32964;SDS011;19317;48.226;11.686;2022-08-19T21:49:22;10.67;;;9.67;;
32964;SDS011;19317;48.226;11.686;2022-08-19T21:54:13;10.60;;;9.70;;
32964;SDS011;19317;48.226;11.686;2022-08-19T21:59:04;9.97;;;9.07;;
32964;SDS011;19317;48.226;11.686;2022-08-19T22:03:55;10.57;;;9.67;;
32964;SDS011;19317;48.226;11.686;2022-08-19T22:08:46;10.17;;;9.17;;
32964;SDS011;19317;48.226;11.686;2022-08-19T22:13:37;10.67;;;9.87;;
32964;SDS011;19317;48.226;11.686;2022-08-19T22:18:28;10.43;;;9.53;;
32964;SDS011;19317;48.226;11.686;2022-08-19T22:23:19;11.40;;;10.30;;
32964;SDS011;19317;48.226;11.686;2022-08-19T22:28:10;12.57;;;11.53;;
32964;SDS011;19317;48.226;11.686;2022-08-19T22:33:03;11.23;;;10.23;;
32964;SDS011;19317;48.226;11.686;2022-08-19T22:37:54;12.67;;;11.40;;
32964;SDS011;19317;48.226;11.686;2022-08-19T22:42:45;13.80;;;12.47;;
32964;SDS011;19317;48.226;11.686;2022-08-19T22:47:37;12.30;;;11.20;;
32964;SDS011;19317;48.226;11.686;2022-08-19T22:52:28;12.53;;;11.30;;
32964;SDS011;19317;48.226;11.686;2022-08-19T22:57:19;13.47;;;12.23;;
32964;SDS011;19317;48.226;11.686;2022-08-19T23:02:14;14.63;;;13.43;;
32964;SDS011;19317;48.226;11.686;2022-08-19T23:07:06;15.40;;;14.07;;
32964;SDS011;19317;48.226;11.686;2022-08-19T23:11:57;14.87;;;13.57;;
32964;SDS011;19317;48.226;11.686;2022-08-19T23:16:48;14.70;;;13.30;;
32964;SDS011;19317;48.226;11.686;2022-08-19T23:21:40;15.07;;;13.63;;
32964;SDS011;19317;48.226;11.686;2022-08-19T23:26:31;13.07;;;11.87;;
32964;SDS011;19317;48.226;11.686;2022-08-19T23:31:23;13.97;;;12.63;;
32964;SDS011;19317;48.226;11.686;2022-08-19T23:36:15;14.20;;;12.93;;
32964;SDS011;19317;48.226;11.686;2022-08-19T23:41:07;15.77;;;14.37;;
32964;SDS011;19317;48.226;11.686;2022-08-19T23:45:59;16.10;;;14.70;;
32964;SDS011;19317;48.226;11.686;2022-08-19T23:50:50;16.70;;;15.30;;
32964;SDS011;19317;48.226;11.686;2022-08-19T23:55:42;17.70;;;15.93;;
